sensor_id;sensor_type;location;lat;lon;timestamp;P1;durP1;ratioP1;P2;durP2;ratioP2
7813;SDS011;3952;48.364;16.022;2023-02-28T00:01:26;8.57;;;7.47;;
7813;SDS011;3952;48.364;16.022;2023-02-28T00:03:53;8.30;;;7.47;;
7813;SDS011;3952;48.364;16.022;2023-02-28T00:06:21;8.67;;;7.87;;
7813;SDS011;3952;48.364;16.022;2023-02-28T00:08:50;8.77;;;7.77;;
7813;SDS011;3952;48.364;16.022;2023-02-28T00:11:18;8.33;;;6.83;;
7813;SDS011;3952;48.364;16.022;2023-02-28T00:13:45;9.57;;;7.47;;
7813;SDS011;3952;48.364;16.022;2023-02-28T00:16:14;7.67;;;7.07;;
7813;SDS011;3952;48.364;16.022;2023-02-28T00:18:44;8.87;;;7.80;;
7813;SDS011;3952;48.364;16.022;2023-02-28T00:21:13;8.70;;;7.87;;
7813;SDS011;3952;48.364;16.022;2023-02-28T00:23:41;8.87;;;7.97;;
7813;SDS011;3952;48.364;16.022;2023-02-28T00:26:10;8.13;;;7.43;;
7813;SDS011;3952;48.364;16.022;2023-02-28T00:28:37;10.93;;;7.97;;
7813;SDS011;3952;48.364;16.022;2023-02-28T00:31:04;10.77;;;8.37;;
7813;SDS011;3952;48.364;16.022;2023-02-28T00:33:32;12.67;;;9.50;;
7813;SDS011;3952;48.364;16.022;2023-02-28T00:36:03;10.53;;;9.40;;
7813;SDS011;3952;48.364;16.022;2023-02-28T00:38:31;12.50;;;9.10;;
7813;SDS011;3952;48.364;16.022;2023-02-28T00:40:58;9.03;;;8.07;;
7813;SDS011;3952;48.364;16.022;2023-02-28T00:43:31;8.70;;;7.90;;
7813;SDS011;3952;48.364;16.022;2023-02-28T00:45:59;9.03;;;8.13;;
7813;SDS011;3952;48.364;16.022;2023-02-28T00:48:27;9.50;;;8.50;;
7813;SDS011;3952;48.364;16.022;2023-02-28T00:50:54;10.37;;;8.40;;
7813;SDS011;3952;48.364;16.022;2023-02-28T00:53:22;9.37;;;8.47;;
7813;SDS011;3952;48.364;16.022;2023-02-28T00:55:49;9.83;;;8.20;;
7813;SDS011;3952;48.364;16.022;2023-02-28T00:58:17;9.03;;;8.13;;
7813;SDS011;3952;48.364;16.022;2023-02-28T01:00:45;11.20;;;8.67;;
7813;SDS011;3952;48.364;16.022;2023-02-28T01:03:14;11.67;;;9.10;;
7813;SDS011;3952;48.364;16.022;2023-02-28T01:05:42;11.60;;;8.93;;
7813;SDS011;3952;48.364;16.022;2023-02-28T01:08:09;10.47;;;8.80;;
7813;SDS011;3952;48.364;16.022;2023-02-28T01:10:36;10.40;;;9.23;;
7813;SDS011;3952;48.364;16.022;2023-02-28T01:13:03;12.30;;;9.23;;
7813;SDS011;3952;48.364;16.022;2023-02-28T01:15:30;10.07;;;8.73;;
7813;SDS011;3952;48.364;16.022;2023-02-28T01:17:59;10.07;;;8.87;;
7813;SDS011;3952;48.364;16.022;2023-02-28T01:20:27;9.97;;;8.47;;
7813;SDS011;3952;48.364;16.022;2023-02-28T01:22:54;10.23;;;8.63;;
7813;SDS011;3952;48.364;16.022;2023-02-28T01:25:21;10.57;;;9.07;;
7813;SDS011;3952;48.364;16.022;2023-02-28T01:27:48;11.40;;;9.47;;
7813;SDS011;3952;48.364;16.022;2023-02-28T01:30:16;10.43;;;9.37;;
7813;SDS011;3952;48.364;16.022;2023-02-28T01:32:43;9.37;;;8.47;;
7813;SDS011;3952;48.364;16.022;2023-02-28T01:35:11;10.70;;;9.17;;
7813;SDS011;3952;48.364;16.022;2023-02-28T01:37:39;15.53;;;9.07;;
7813;SDS011;3952;48.364;16.022;2023-02-28T01:40:06;12.30;;;8.87;;
7813;SDS011;3952;48.364;16.022;2023-02-28T01:42:35;10.00;;;9.00;;
7813;SDS011;3952;48.364;16.022;2023-02-28T01:45:04;10.67;;;8.70;;
7813;SDS011;3952;48.364;16.022;2023-02-28T01:47:44;10.67;;;8.60;;
7813;SDS011;3952;48.364;16.022;2023-02-28T01:50:15;11.17;;;9.47;;
7813;SDS011;3952;48.364;16.022;2023-02-28T01:52:45;10.53;;;9.40;;
7813;SDS011;3952;48.364;16.022;2023-02-28T01:55:15;10.03;;;8.50;;
7813;SDS011;3952;48.364;16.022;2023-02-28T01:57:46;10.20;;;8.70;;
7813;SDS011;3952;48.364;16.022;2023-02-28T02:00:18;11.77;;;8.77;;
7813;SDS011;3952;48.364;16.022;2023-02-28T02:02:48;11.13;;;8.87;;
7813;SDS011;3952;48.364;16.022;2023-02-28T02:05:21;9.77;;;8.30;;
7813;SDS011;3952;48.364;16.022;2023-02-28T02:07:50;10.97;;;8.97;;
7813;SDS011;3952;48.364;16.022;2023-02-28T02:10:20;11.17;;;9.37;;
7813;SDS011;3952;48.364;16.022;2023-02-28T02:12:56;9.63;;;8.70;;
7813;SDS011;3952;48.364;16.022;2023-02-28T02:15:38;11.27;;;9.07;;
7813;SDS011;3952;48.364;16.022;2023-02-28T02:18:09;11.77;;;8.77;;
7813;SDS011;3952;48.364;16.022;2023-02-28T02:21:04;12.90;;;9.30;;
7813;SDS011;3952;48.364;16.022;2023-02-28T02:24:11;9.20;;;8.17;;
7813;SDS011;3952;48.364;16.022;2023-02-28T02:32:55;10.57;;;8.63;;
7813;SDS011;3952;48.364;16.022;2023-02-28T02:35:34;10.27;;;9.03;;
7813;SDS011;3952;48.364;16.022;2023-02-28T02:38:09;11.53;;;9.50;;
7813;SDS011;3952;48.364;16.022;2023-02-28T02:40:45;9.97;;;8.93;;
7813;SDS011;3952;48.364;16.022;2023-02-28T02:43:20;10.40;;;9.27;;
7813;SDS011;3952;48.364;16.022;2023-02-28T02:45:56;10.73;;;8.70;;
7813;SDS011;3952;48.364;16.022;2023-02-28T02:48:30;12.27;;;9.27;;
7813;SDS011;3952;48.364;16.022;2023-02-28T02:51:01;11.17;;;9.13;;
7813;SDS011;3952;48.364;16.022;2023-02-28T02:53:37;9.90;;;8.87;;
7813;SDS011;3952;48.364;16.022;2023-02-28T02:56:08;10.67;;;8.77;;
7813;SDS011;3952;48.364;16.022;2023-02-28T02:58:38;13.23;;;8.97;;
7813;SDS011;3952;48.364;16.022;2023-02-28T03:01:10;10.87;;;8.70;;
7813;SDS011;3952;48.364;16.022;2023-02-28T03:03:41;12.47;;;9.17;;
7813;SDS011;3952;48.364;16.022;2023-02-28T03:06:09;12.43;;;9.60;;
7813;SDS011;3952;48.364;16.022;2023-02-28T03:08:37;12.07;;;9.93;;
7813;SDS011;3952;48.364;16.022;2023-02-28T03:11:06;10.00;;;8.73;;
7813;SDS011;3952;48.364;16.022;2023-02-28T03:13:42;13.53;;;10.10;;
7813;SDS011;3952;48.364;16.022;2023-02-28T03:16:29;10.23;;;9.23;;
7813;SDS011;3952;48.364;16.022;2023-02-28T03:19:09;11.70;;;9.13;;
7813;SDS011;3952;48.364;16.022;2023-02-28T03:21:53;13.87;;;9.97;;
7813;SDS011;3952;48.364;16.022;2023-02-28T03:24:32;10.40;;;8.93;;
7813;SDS011;3952;48.364;16.022;2023-02-28T03:27:07;12.40;;;9.80;;
7813;SDS011;3952;48.364;16.022;2023-02-28T03:29:42;11.20;;;9.33;;
7813;SDS011;3952;48.364;16.022;2023-02-28T03:32:15;11.47;;;9.50;;
7813;SDS011;3952;48.364;16.022;2023-02-28T03:34:48;14.40;;;10.23;;
7813;SDS011;3952;48.364;16.022;2023-02-28T03:37:23;19.07;;;12.37;;
7813;SDS011;3952;48.364;16.022;2023-02-28T03:39:53;13.67;;;10.60;;
7813;SDS011;3952;48.364;16.022;2023-02-28T03:42:25;16.00;;;9.87;;
7813;SDS011;3952;48.364;16.022;2023-02-28T03:44:56;16.73;;;10.20;;
7813;SDS011;3952;48.364;16.022;2023-02-28T03:47:27;19.67;;;11.97;;
7813;SDS011;3952;48.364;16.022;2023-02-28T03:49:59;17.87;;;11.60;;
7813;SDS011;3952;48.364;16.022;2023-02-28T03:52:35;14.57;;;10.50;;
7813;SDS011;3952;48.364;16.022;2023-02-28T03:55:08;13.87;;;10.90;;
7813;SDS011;3952;48.364;16.022;2023-02-28T03:57:39;19.43;;;10.97;;
7813;SDS011;3952;48.364;16.022;2023-02-28T04:00:10;25.30;;;13.77;;
7813;SDS011;3952;48.364;16.022;2023-02-28T04:02:41;29.10;;;14.23;;
7813;SDS011;3952;48.364;16.022;2023-02-28T04:05:08;25.77;;;14.47;;
7813;SDS011;3952;48.364;16.022;2023-02-28T04:07:37;20.53;;;13.20;;
7813;SDS011;3952;48.364;16.022;2023-02-28T04:10:05;17.07;;;12.13;;
7813;SDS011;3952;48.364;16.022;2023-02-28T04:12:33;18.47;;;12.67;;
7813;SDS011;3952;48.364;16.022;2023-02-28T04:15:00;18.50;;;11.43;;
7813;SDS011;3952;48.364;16.022;2023-02-28T04:17:27;11.57;;;10.20;;
7813;SDS011;3952;48.364;16.022;2023-02-28T04:19:54;10.20;;;9.10;;
7813;SDS011;3952;48.364;16.022;2023-02-28T04:22:22;12.13;;;9.37;;
7813;SDS011;3952;48.364;16.022;2023-02-28T04:24:53;15.80;;;10.03;;
7813;SDS011;3952;48.364;16.022;2023-02-28T04:27:20;14.47;;;9.27;;
7813;SDS011;3952;48.364;16.022;2023-02-28T04:29:48;12.53;;;9.10;;
7813;SDS011;3952;48.364;16.022;2023-02-28T04:32:15;11.27;;;9.63;;
7813;SDS011;3952;48.364;16.022;2023-02-28T04:34:42;10.87;;;9.23;;
7813;SDS011;3952;48.364;16.022;2023-02-28T04:37:09;12.53;;;9.63;;
7813;SDS011;3952;48.364;16.022;2023-02-28T04:39:37;11.30;;;8.30;;
7813;SDS011;3952;48.364;16.022;2023-02-28T04:42:05;11.77;;;9.07;;
7813;SDS011;3952;48.364;16.022;2023-02-28T04:44:33;11.43;;;8.97;;
7813;SDS011;3952;48.364;16.022;2023-02-28T04:47:00;12.60;;;9.57;;
7813;SDS011;3952;48.364;16.022;2023-02-28T04:49:27;11.93;;;9.80;;
7813;SDS011;3952;48.364;16.022;2023-02-28T04:51:54;11.40;;;9.50;;
7813;SDS011;3952;48.364;16.022;2023-02-28T04:54:22;17.40;;;10.20;;
7813;SDS011;3952;48.364;16.022;2023-02-28T04:56:49;12.43;;;9.53;;
7813;SDS011;3952;48.364;16.022;2023-02-28T04:59:18;15.53;;;10.87;;
7813;SDS011;3952;48.364;16.022;2023-02-28T05:01:46;12.47;;;10.60;;
7813;SDS011;3952;48.364;16.022;2023-02-28T05:04:14;13.43;;;10.37;;
7813;SDS011;3952;48.364;16.022;2023-02-28T05:06:43;15.60;;;10.30;;
7813;SDS011;3952;48.364;16.022;2023-02-28T05:09:10;14.27;;;10.23;;
7813;SDS011;3952;48.364;16.022;2023-02-28T05:11:37;13.90;;;9.83;;
7813;SDS011;3952;48.364;16.022;2023-02-28T05:14:05;13.30;;;10.27;;
7813;SDS011;3952;48.364;16.022;2023-02-28T05:16:37;13.13;;;10.50;;
7813;SDS011;3952;48.364;16.022;2023-02-28T05:19:04;13.43;;;10.73;;
7813;SDS011;3952;48.364;16.022;2023-02-28T05:21:32;14.70;;;10.77;;
7813;SDS011;3952;48.364;16.022;2023-02-28T05:24:01;19.57;;;11.47;;
7813;SDS011;3952;48.364;16.022;2023-02-28T05:26:30;16.53;;;10.53;;
7813;SDS011;3952;48.364;16.022;2023-02-28T05:29:01;18.17;;;11.67;;
7813;SDS011;3952;48.364;16.022;2023-02-28T05:31:28;15.67;;;10.43;;
7813;SDS011;3952;48.364;16.022;2023-02-28T05:33:57;16.30;;;10.10;;
7813;SDS011;3952;48.364;16.022;2023-02-28T05:36:24;17.17;;;10.83;;
7813;SDS011;3952;48.364;16.022;2023-02-28T05:38:51;17.83;;;11.67;;
7813;SDS011;3952;48.364;16.022;2023-02-28T05:41:19;13.67;;;10.47;;
7813;SDS011;3952;48.364;16.022;2023-02-28T05:43:47;13.03;;;10.27;;
7813;SDS011;3952;48.364;16.022;2023-02-28T05:46:15;12.93;;;10.33;;
7813;SDS011;3952;48.364;16.022;2023-02-28T05:48:42;14.10;;;11.17;;
7813;SDS011;3952;48.364;16.022;2023-02-28T05:51:14;14.63;;;10.60;;
7813;SDS011;3952;48.364;16.022;2023-02-28T05:53:41;18.93;;;12.33;;
7813;SDS011;3952;48.364;16.022;2023-02-28T05:56:08;15.87;;;12.67;;
7813;SDS011;3952;48.364;16.022;2023-02-28T05:58:36;15.83;;;11.13;;
7813;SDS011;3952;48.364;16.022;2023-02-28T06:03:46;15.57;;;11.20;;
7813;SDS011;3952;48.364;16.022;2023-02-28T06:06:15;16.70;;;11.50;;
7813;SDS011;3952;48.364;16.022;2023-02-28T06:08:42;12.83;;;9.63;;
7813;SDS011;3952;48.364;16.022;2023-02-28T06:11:10;16.83;;;10.83;;
7813;SDS011;3952;48.364;16.022;2023-02-28T06:13:38;20.70;;;11.87;;
7813;SDS011;3952;48.364;16.022;2023-02-28T06:16:05;13.50;;;10.80;;
7813;SDS011;3952;48.364;16.022;2023-02-28T06:18:33;17.63;;;11.47;;
7813;SDS011;3952;48.364;16.022;2023-02-28T06:21:00;15.13;;;10.43;;
7813;SDS011;3952;48.364;16.022;2023-02-28T06:23:29;16.23;;;11.47;;
7813;SDS011;3952;48.364;16.022;2023-02-28T06:25:56;16.73;;;10.67;;
7813;SDS011;3952;48.364;16.022;2023-02-28T06:28:24;21.80;;;11.93;;
7813;SDS011;3952;48.364;16.022;2023-02-28T06:30:51;19.93;;;12.57;;
7813;SDS011;3952;48.364;16.022;2023-02-28T06:33:18;36.77;;;13.80;;
7813;SDS011;3952;48.364;16.022;2023-02-28T06:35:46;19.40;;;12.17;;
7813;SDS011;3952;48.364;16.022;2023-02-28T06:38:16;22.77;;;12.90;;
7813;SDS011;3952;48.364;16.022;2023-02-28T06:40:45;22.30;;;13.20;;
7813;SDS011;3952;48.364;16.022;2023-02-28T06:43:20;49.13;;;20.27;;
7813;SDS011;3952;48.364;16.022;2023-02-28T06:45:47;43.87;;;20.50;;
7813;SDS011;3952;48.364;16.022;2023-02-28T06:48:14;33.13;;;16.37;;
7813;SDS011;3952;48.364;16.022;2023-02-28T06:50:42;35.57;;;17.13;;
7813;SDS011;3952;48.364;16.022;2023-02-28T06:53:09;44.77;;;18.27;;
7813;SDS011;3952;48.364;16.022;2023-02-28T06:55:37;27.37;;;15.03;;
7813;SDS011;3952;48.364;16.022;2023-02-28T06:58:05;18.40;;;12.10;;
7813;SDS011;3952;48.364;16.022;2023-02-28T07:00:41;18.30;;;12.10;;
7813;SDS011;3952;48.364;16.022;2023-02-28T07:03:09;15.73;;;11.63;;
7813;SDS011;3952;48.364;16.022;2023-02-28T07:05:37;20.37;;;12.07;;
7813;SDS011;3952;48.364;16.022;2023-02-28T07:08:05;14.90;;;11.03;;
7813;SDS011;3952;48.364;16.022;2023-02-28T07:10:33;19.33;;;12.20;;
7813;SDS011;3952;48.364;16.022;2023-02-28T07:13:03;13.30;;;10.10;;
7813;SDS011;3952;48.364;16.022;2023-02-28T07:15:32;15.37;;;10.83;;
7813;SDS011;3952;48.364;16.022;2023-02-28T07:18:00;16.23;;;11.63;;
7813;SDS011;3952;48.364;16.022;2023-02-28T07:20:27;17.67;;;12.60;;
7813;SDS011;3952;48.364;16.022;2023-02-28T07:22:54;21.43;;;12.73;;
7813;SDS011;3952;48.364;16.022;2023-02-28T07:25:22;14.70;;;11.87;;
7813;SDS011;3952;48.364;16.022;2023-02-28T07:27:49;14.53;;;11.50;;
7813;SDS011;3952;48.364;16.022;2023-02-28T07:30:18;19.80;;;13.43;;
7813;SDS011;3952;48.364;16.022;2023-02-28T07:32:46;11.57;;;10.40;;
7813;SDS011;3952;48.364;16.022;2023-02-28T07:35:13;11.30;;;10.23;;
7813;SDS011;3952;48.364;16.022;2023-02-28T07:37:41;12.90;;;11.60;;
7813;SDS011;3952;48.364;16.022;2023-02-28T07:40:09;10.97;;;10.07;;
7813;SDS011;3952;48.364;16.022;2023-02-28T07:42:38;11.23;;;10.13;;
7813;SDS011;3952;48.364;16.022;2023-02-28T07:45:07;10.87;;;9.80;;
7813;SDS011;3952;48.364;16.022;2023-02-28T07:47:38;11.10;;;10.17;;
7813;SDS011;3952;48.364;16.022;2023-02-28T07:50:05;11.60;;;10.37;;
7813;SDS011;3952;48.364;16.022;2023-02-28T07:52:34;10.70;;;9.80;;
7813;SDS011;3952;48.364;16.022;2023-02-28T07:55:02;10.93;;;9.83;;
7813;SDS011;3952;48.364;16.022;2023-02-28T07:57:30;12.23;;;9.53;;
7813;SDS011;3952;48.364;16.022;2023-02-28T07:59:58;10.90;;;10.00;;
7813;SDS011;3952;48.364;16.022;2023-02-28T08:02:25;13.57;;;11.33;;
7813;SDS011;3952;48.364;16.022;2023-02-28T08:04:54;11.37;;;10.33;;
7813;SDS011;3952;48.364;16.022;2023-02-28T08:07:21;11.33;;;10.20;;
7813;SDS011;3952;48.364;16.022;2023-02-28T08:09:49;11.57;;;10.30;;
7813;SDS011;3952;48.364;16.022;2023-02-28T08:12:16;11.07;;;9.97;;
7813;SDS011;3952;48.364;16.022;2023-02-28T08:14:43;11.30;;;10.17;;
7813;SDS011;3952;48.364;16.022;2023-02-28T08:17:10;11.77;;;10.60;;
7813;SDS011;3952;48.364;16.022;2023-02-28T08:19:38;13.23;;;11.40;;
7813;SDS011;3952;48.364;16.022;2023-02-28T08:22:06;14.43;;;10.93;;
7813;SDS011;3952;48.364;16.022;2023-02-28T08:24:34;17.27;;;12.13;;
7813;SDS011;3952;48.364;16.022;2023-02-28T08:27:01;11.83;;;10.63;;
7813;SDS011;3952;48.364;16.022;2023-02-28T08:29:28;13.30;;;10.83;;
7813;SDS011;3952;48.364;16.022;2023-02-28T08:31:56;16.33;;;12.73;;
7813;SDS011;3952;48.364;16.022;2023-02-28T08:34:24;15.10;;;11.33;;
7813;SDS011;3952;48.364;16.022;2023-02-28T08:36:51;12.47;;;11.27;;
7813;SDS011;3952;48.364;16.022;2023-02-28T08:39:20;12.10;;;10.97;;
7813;SDS011;3952;48.364;16.022;2023-02-28T08:41:47;13.37;;;11.87;;
7813;SDS011;3952;48.364;16.022;2023-02-28T08:44:14;15.17;;;12.63;;
7813;SDS011;3952;48.364;16.022;2023-02-28T08:46:41;13.90;;;12.40;;
7813;SDS011;3952;48.364;16.022;2023-02-28T08:49:09;17.73;;;13.90;;
7813;SDS011;3952;48.364;16.022;2023-02-28T08:51:38;17.57;;;12.90;;
7813;SDS011;3952;48.364;16.022;2023-02-28T08:54:05;16.23;;;13.13;;
7813;SDS011;3952;48.364;16.022;2023-02-28T08:56:34;16.03;;;12.47;;
7813;SDS011;3952;48.364;16.022;2023-02-28T08:59:01;17.13;;;12.70;;
7813;SDS011;3952;48.364;16.022;2023-02-28T09:01:28;14.33;;;12.43;;
7813;SDS011;3952;48.364;16.022;2023-02-28T09:03:56;15.60;;;12.77;;
7813;SDS011;3952;48.364;16.022;2023-02-28T09:06:24;16.53;;;12.87;;
7813;SDS011;3952;48.364;16.022;2023-02-28T09:08:53;17.77;;;12.80;;
7813;SDS011;3952;48.364;16.022;2023-02-28T09:11:24;16.30;;;12.87;;
7813;SDS011;3952;48.364;16.022;2023-02-28T09:13:53;16.67;;;12.70;;
7813;SDS011;3952;48.364;16.022;2023-02-28T09:16:21;17.37;;;12.67;;
7813;SDS011;3952;48.364;16.022;2023-02-28T09:18:49;19.87;;;13.90;;
7813;SDS011;3952;48.364;16.022;2023-02-28T09:21:17;18.53;;;14.40;;
7813;SDS011;3952;48.364;16.022;2023-02-28T09:23:46;15.57;;;12.77;;
7813;SDS011;3952;48.364;16.022;2023-02-28T09:26:14;19.70;;;13.93;;
7813;SDS011;3952;48.364;16.022;2023-02-28T09:28:43;14.77;;;12.00;;
7813;SDS011;3952;48.364;16.022;2023-02-28T09:31:13;14.57;;;10.90;;
7813;SDS011;3952;48.364;16.022;2023-02-28T09:33:41;16.73;;;12.23;;
7813;SDS011;3952;48.364;16.022;2023-02-28T09:36:08;12.97;;;11.53;;
7813;SDS011;3952;48.364;16.022;2023-02-28T09:38:36;14.03;;;12.73;;
7813;SDS011;3952;48.364;16.022;2023-02-28T09:41:04;15.30;;;12.83;;
7813;SDS011;3952;48.364;16.022;2023-02-28T09:43:40;11.93;;;10.80;;
7813;SDS011;3952;48.364;16.022;2023-02-28T09:46:14;15.63;;;12.17;;
7813;SDS011;3952;48.364;16.022;2023-02-28T09:48:51;11.23;;;9.97;;
7813;SDS011;3952;48.364;16.022;2023-02-28T09:51:28;12.43;;;11.23;;
7813;SDS011;3952;48.364;16.022;2023-02-28T09:54:03;13.60;;;11.83;;
7813;SDS011;3952;48.364;16.022;2023-02-28T09:56:31;14.27;;;12.80;;
7813;SDS011;3952;48.364;16.022;2023-02-28T09:59:06;15.47;;;13.83;;
7813;SDS011;3952;48.364;16.022;2023-02-28T10:01:43;17.63;;;13.67;;
7813;SDS011;3952;48.364;16.022;2023-02-28T10:04:23;15.10;;;12.17;;
7813;SDS011;3952;48.364;16.022;2023-02-28T10:07:04;15.47;;;13.20;;
7813;SDS011;3952;48.364;16.022;2023-02-28T10:09:42;17.37;;;11.87;;
7813;SDS011;3952;48.364;16.022;2023-02-28T10:12:13;17.47;;;12.10;;
7813;SDS011;3952;48.364;16.022;2023-02-28T10:14:42;19.13;;;14.27;;
7813;SDS011;3952;48.364;16.022;2023-02-28T10:17:15;15.43;;;12.77;;
7813;SDS011;3952;48.364;16.022;2023-02-28T10:19:55;14.83;;;12.83;;
7813;SDS011;3952;48.364;16.022;2023-02-28T10:22:34;14.93;;;12.73;;
7813;SDS011;3952;48.364;16.022;2023-02-28T10:25:18;15.33;;;12.43;;
7813;SDS011;3952;48.364;16.022;2023-02-28T10:27:47;15.70;;;12.10;;
7813;SDS011;3952;48.364;16.022;2023-02-28T10:30:15;12.57;;;11.47;;
7813;SDS011;3952;48.364;16.022;2023-02-28T10:32:46;21.80;;;13.83;;
7813;SDS011;3952;48.364;16.022;2023-02-28T10:35:19;23.07;;;16.00;;
7813;SDS011;3952;48.364;16.022;2023-02-28T10:37:49;21.47;;;14.93;;
7813;SDS011;3952;48.364;16.022;2023-02-28T10:40:27;18.93;;;14.07;;
7813;SDS011;3952;48.364;16.022;2023-02-28T10:42:57;30.30;;;18.97;;
7813;SDS011;3952;48.364;16.022;2023-02-28T10:45:26;24.20;;;17.60;;
7813;SDS011;3952;48.364;16.022;2023-02-28T10:47:59;15.33;;;13.77;;
7813;SDS011;3952;48.364;16.022;2023-02-28T10:50:34;22.57;;;16.33;;
7813;SDS011;3952;48.364;16.022;2023-02-28T10:53:14;25.63;;;16.43;;
7813;SDS011;3952;48.364;16.022;2023-02-28T10:55:55;26.00;;;16.57;;
7813;SDS011;3952;48.364;16.022;2023-02-28T10:58:24;19.90;;;14.93;;
7813;SDS011;3952;48.364;16.022;2023-02-28T11:00:54;20.60;;;15.50;;
7813;SDS011;3952;48.364;16.022;2023-02-28T11:03:25;23.27;;;15.60;;
7813;SDS011;3952;48.364;16.022;2023-02-28T11:05:56;24.07;;;17.17;;
7813;SDS011;3952;48.364;16.022;2023-02-28T11:08:24;16.83;;;14.93;;
7813;SDS011;3952;48.364;16.022;2023-02-28T11:10:54;14.87;;;13.47;;
7813;SDS011;3952;48.364;16.022;2023-02-28T11:13:25;13.67;;;12.40;;
7813;SDS011;3952;48.364;16.022;2023-02-28T11:15:54;15.77;;;13.60;;
7813;SDS011;3952;48.364;16.022;2023-02-28T11:18:26;18.60;;;16.43;;
7813;SDS011;3952;48.364;16.022;2023-02-28T11:20:57;14.50;;;13.13;;
7813;SDS011;3952;48.364;16.022;2023-02-28T11:23:27;13.90;;;12.50;;
7813;SDS011;3952;48.364;16.022;2023-02-28T11:25:58;14.03;;;12.73;;
7813;SDS011;3952;48.364;16.022;2023-02-28T11:28:28;17.40;;;13.33;;
7813;SDS011;3952;48.364;16.022;2023-02-28T11:31:02;14.80;;;13.30;;
7813;SDS011;3952;48.364;16.022;2023-02-28T11:33:39;12.97;;;11.70;;
7813;SDS011;3952;48.364;16.022;2023-02-28T11:36:11;21.03;;;15.43;;
7813;SDS011;3952;48.364;16.022;2023-02-28T11:38:40;14.43;;;13.13;;
7813;SDS011;3952;48.364;16.022;2023-02-28T11:41:19;16.60;;;13.27;;
7813;SDS011;3952;48.364;16.022;2023-02-28T11:44:05;13.87;;;12.53;;
7813;SDS011;3952;48.364;16.022;2023-02-28T11:46:46;12.83;;;11.57;;
7813;SDS011;3952;48.364;16.022;2023-02-28T11:49:27;13.87;;;12.27;;
7813;SDS011;3952;48.364;16.022;2023-02-28T11:52:04;13.43;;;12.03;;
7813;SDS011;3952;48.364;16.022;2023-02-28T11:57:45;17.00;;;11.37;;
7813;SDS011;3952;48.364;16.022;2023-02-28T12:00:29;13.73;;;11.20;;
7813;SDS011;3952;48.364;16.022;2023-02-28T12:03:09;16.57;;;11.47;;
7813;SDS011;3952;48.364;16.022;2023-02-28T12:05:53;15.33;;;12.00;;
7813;SDS011;3952;48.364;16.022;2023-02-28T12:08:35;14.30;;;11.70;;
7813;SDS011;3952;48.364;16.022;2023-02-28T12:11:23;13.70;;;11.60;;
7813;SDS011;3952;48.364;16.022;2023-02-28T12:13:59;13.00;;;11.83;;
7813;SDS011;3952;48.364;16.022;2023-02-28T12:16:41;13.43;;;12.07;;
7813;SDS011;3952;48.364;16.022;2023-02-28T12:19:20;14.20;;;12.63;;
7813;SDS011;3952;48.364;16.022;2023-02-28T12:22:06;13.73;;;12.27;;
7813;SDS011;3952;48.364;16.022;2023-02-28T12:28:04;17.37;;;12.37;;
7813;SDS011;3952;48.364;16.022;2023-02-28T12:30:35;14.50;;;11.83;;
7813;SDS011;3952;48.364;16.022;2023-02-28T12:33:06;14.57;;;11.43;;
7813;SDS011;3952;48.364;16.022;2023-02-28T12:35:38;13.73;;;12.33;;
7813;SDS011;3952;48.364;16.022;2023-02-28T12:38:14;17.27;;;12.50;;
7813;SDS011;3952;48.364;16.022;2023-02-28T12:40:47;13.80;;;12.20;;
7813;SDS011;3952;48.364;16.022;2023-02-28T12:43:19;14.90;;;11.73;;
7813;SDS011;3952;48.364;16.022;2023-02-28T12:45:53;12.77;;;11.53;;
7813;SDS011;3952;48.364;16.022;2023-02-28T12:48:27;17.07;;;13.07;;
7813;SDS011;3952;48.364;16.022;2023-02-28T12:50:58;13.30;;;12.10;;
7813;SDS011;3952;48.364;16.022;2023-02-28T12:53:30;14.77;;;11.43;;
7813;SDS011;3952;48.364;16.022;2023-02-28T12:56:08;14.00;;;12.50;;
7813;SDS011;3952;48.364;16.022;2023-02-28T12:58:47;13.33;;;12.07;;
7813;SDS011;3952;48.364;16.022;2023-02-28T13:01:28;13.83;;;12.30;;
7813;SDS011;3952;48.364;16.022;2023-02-28T13:04:16;13.80;;;11.93;;
7813;SDS011;3952;48.364;16.022;2023-02-28T13:07:24;14.53;;;12.37;;
7813;SDS011;3952;48.364;16.022;2023-02-28T13:10:13;13.23;;;11.97;;
7813;SDS011;3952;48.364;16.022;2023-02-28T13:12:47;12.53;;;11.30;;
7813;SDS011;3952;48.364;16.022;2023-02-28T13:15:17;14.53;;;11.63;;
7813;SDS011;3952;48.364;16.022;2023-02-28T13:17:49;11.97;;;10.63;;
7813;SDS011;3952;48.364;16.022;2023-02-28T13:20:18;12.03;;;10.80;;
7813;SDS011;3952;48.364;16.022;2023-02-28T13:22:50;11.53;;;10.43;;
7813;SDS011;3952;48.364;16.022;2023-02-28T13:31:31;12.73;;;11.40;;
7813;SDS011;3952;48.364;16.022;2023-02-28T13:34:12;13.23;;;10.43;;
7813;SDS011;3952;48.364;16.022;2023-02-28T13:36:41;11.60;;;10.40;;
7813;SDS011;3952;48.364;16.022;2023-02-28T13:42:30;11.70;;;10.50;;
7813;SDS011;3952;48.364;16.022;2023-02-28T13:45:21;12.80;;;10.63;;
7813;SDS011;3952;48.364;16.022;2023-02-28T13:47:54;13.73;;;9.97;;
7813;SDS011;3952;48.364;16.022;2023-02-28T13:50:27;11.37;;;10.37;;
7813;SDS011;3952;48.364;16.022;2023-02-28T13:53:03;14.47;;;10.27;;
7813;SDS011;3952;48.364;16.022;2023-02-28T13:55:59;11.97;;;10.63;;
7813;SDS011;3952;48.364;16.022;2023-02-28T13:58:39;12.67;;;11.30;;
7813;SDS011;3952;48.364;16.022;2023-02-28T14:01:16;12.37;;;11.03;;
7813;SDS011;3952;48.364;16.022;2023-02-28T14:04:08;11.17;;;10.23;;
7813;SDS011;3952;48.364;16.022;2023-02-28T14:06:52;12.00;;;10.53;;
7813;SDS011;3952;48.364;16.022;2023-02-28T14:09:23;12.43;;;11.27;;
7813;SDS011;3952;48.364;16.022;2023-02-28T14:11:53;25.17;;;16.13;;
7813;SDS011;3952;48.364;16.022;2023-02-28T14:17:22;12.03;;;10.77;;
7813;SDS011;3952;48.364;16.022;2023-02-28T14:19:51;13.23;;;11.83;;
7813;SDS011;3952;48.364;16.022;2023-02-28T14:22:22;17.67;;;13.83;;
7813;SDS011;3952;48.364;16.022;2023-02-28T14:25:12;14.70;;;12.60;;
7813;SDS011;3952;48.364;16.022;2023-02-28T14:27:50;17.47;;;12.63;;
7813;SDS011;3952;48.364;16.022;2023-02-28T14:30:43;13.43;;;11.27;;
7813;SDS011;3952;48.364;16.022;2023-02-28T14:33:25;14.10;;;12.53;;
7813;SDS011;3952;48.364;16.022;2023-02-28T14:36:07;14.20;;;12.23;;
7813;SDS011;3952;48.364;16.022;2023-02-28T14:38:42;14.40;;;12.50;;
7813;SDS011;3952;48.364;16.022;2023-02-28T14:41:14;14.80;;;11.73;;
7813;SDS011;3952;48.364;16.022;2023-02-28T14:43:48;12.30;;;11.00;;
7813;SDS011;3952;48.364;16.022;2023-02-28T14:46:22;15.93;;;12.07;;
7813;SDS011;3952;48.364;16.022;2023-02-28T14:48:54;14.13;;;11.70;;
7813;SDS011;3952;48.364;16.022;2023-02-28T14:51:22;17.47;;;12.57;;
7813;SDS011;3952;48.364;16.022;2023-02-28T14:53:52;11.97;;;10.77;;
7813;SDS011;3952;48.364;16.022;2023-02-28T14:56:33;17.73;;;12.83;;
7813;SDS011;3952;48.364;16.022;2023-02-28T14:59:03;13.30;;;10.23;;
7813;SDS011;3952;48.364;16.022;2023-02-28T15:01:33;12.80;;;11.50;;
7813;SDS011;3952;48.364;16.022;2023-02-28T15:04:02;15.53;;;11.80;;
7813;SDS011;3952;48.364;16.022;2023-02-28T15:06:31;13.57;;;11.50;;
7813;SDS011;3952;48.364;16.022;2023-02-28T15:09:09;14.37;;;12.53;;
7813;SDS011;3952;48.364;16.022;2023-02-28T15:11:40;19.80;;;13.47;;
7813;SDS011;3952;48.364;16.022;2023-02-28T15:14:13;12.77;;;10.97;;
7813;SDS011;3952;48.364;16.022;2023-02-28T15:16:45;11.47;;;10.37;;
7813;SDS011;3952;48.364;16.022;2023-02-28T15:19:17;16.10;;;11.80;;
7813;SDS011;3952;48.364;16.022;2023-02-28T15:21:50;10.40;;;9.40;;
7813;SDS011;3952;48.364;16.022;2023-02-28T15:24:20;10.93;;;9.93;;
7813;SDS011;3952;48.364;16.022;2023-02-28T15:26:51;11.93;;;10.20;;
7813;SDS011;3952;48.364;16.022;2023-02-28T15:29:23;12.67;;;10.57;;
7813;SDS011;3952;48.364;16.022;2023-02-28T15:31:56;11.43;;;10.30;;